Time;durP1;ratioP1;P1;durP2;ratioP2;P2;SDS_P1;SDS_P2;PMS_P1;PMS_P2;Temp;Humidity;BMP_temperature;BMP_pressure;BME280_temperature;BME280_humidity;BME280_pressure;Samples;Min_cycle;Max_cycle;Signal;HPM_P1;HPM_P2
2021/12/31 00:00:49;;;;;;;1.20;1.10;;;13.30;98.00;;;;;;5053707;28;20464;-68
2021/12/31 00:03:17;;;;;;;1.43;1.17;;;13.20;98.00;;;;;;5053884;28;20511;-68
2021/12/31 00:05:44;;;;;;;1.20;1.10;;;13.20;98.00;;;;;;5053522;28;20490;-68
2021/12/31 00:08:11;;;;;;;1.43;1.17;;;13.20;98.00;;;;;;5053391;28;20465;-68
2021/12/31 00:10:40;;;;;;;1.60;1.20;;;13.20;98.00;;;;;;5052329;28;20512;-68
2021/12/31 00:13:07;;;;;;;1.40;1.30;;;13.20;98.00;;;;;;5053493;28;20863;-68
2021/12/31 00:15:34;;;;;;;1.20;1.10;;;13.30;98.00;;;;;;5053357;28;20543;-68
2021/12/31 00:18:02;;;;;;;1.20;1.10;;;13.30;98.00;;;;;;5053392;28;20934;-68
2021/12/31 00:20:29;;;;;;;1.20;1.00;;;13.40;98.00;;;;;;5053339;28;20964;-68
2021/12/31 00:23:08;;;;;;;1.20;1.10;;;13.50;98.00;;;;;;5053372;28;20559;-68
2021/12/31 00:25:37;;;;;;;1.20;1.00;;;13.60;98.00;;;;;;5053188;28;20853;-68
2021/12/31 00:28:06;;;;;;;1.43;1.10;;;13.70;98.00;;;;;;5053308;28;20488;-68
2021/12/31 00:30:33;;;;;;;1.37;1.23;;;13.70;98.00;;;;;;5053236;28;20482;-68
2021/12/31 00:33:02;;;;;;;1.40;1.10;;;13.70;98.00;;;;;;5053182;28;20881;-68
2021/12/31 00:35:29;;;;;;;2.03;1.37;;;13.80;98.00;;;;;;5052976;28;20456;-68
2021/12/31 00:37:56;;;;;;;1.20;1.00;;;13.80;98.00;;;;;;5053053;28;20549;-68
2021/12/31 00:40:23;;;;;;;1.20;1.10;;;13.90;98.00;;;;;;5053076;28;20527;-68
2021/12/31 00:42:51;;;;;;;1.30;1.23;;;14.00;98.00;;;;;;5052878;28;20497;-68
2021/12/31 00:45:21;;;;;;;2.10;1.33;;;13.90;98.00;;;;;;5052899;28;21041;-68
2021/12/31 00:47:49;;;;;;;1.20;1.10;;;13.80;98.00;;;;;;5052835;28;20461;-68
2021/12/31 00:50:17;;;;;;;1.20;1.20;;;13.70;98.00;;;;;;5052865;28;20827;-68
2021/12/31 00:52:45;;;;;;;1.20;1.00;;;13.80;98.00;;;;;;5052686;28;21167;-68
2021/12/31 00:55:13;;;;;;;2.37;1.63;;;13.80;98.00;;;;;;5053063;28;20494;-68
2021/12/31 00:57:41;;;;;;;1.40;1.20;;;13.70;98.00;;;;;;5052953;28;20496;-68
2021/12/31 01:00:10;;;;;;;3.10;1.37;;;13.70;98.00;;;;;;5052755;28;20821;-68
2021/12/31 01:02:39;;;;;;;1.60;1.27;;;13.70;98.00;;;;;;5052848;28;20461;-68
2021/12/31 01:05:08;;;;;;;1.20;1.00;;;13.70;98.00;;;;;;5052924;28;20492;-68
2021/12/31 01:07:35;;;;;;;1.20;1.00;;;13.60;98.00;;;;;;5052781;28;20487;-68
2021/12/31 01:10:03;;;;;;;1.57;1.20;;;13.60;98.00;;;;;;5052890;28;20828;-68
2021/12/31 01:12:31;;;;;;;1.60;1.30;;;13.60;98.00;;;;;;5052538;28;20464;-68
2021/12/31 01:15:02;;;;;;;1.20;1.00;;;13.70;98.00;;;;;;5052170;28;20933;-68
2021/12/31 01:17:47;;;;;;;1.50;1.23;;;13.70;98.00;;;;;;5052391;28;20494;-68
2021/12/31 01:20:17;;;;;;;1.20;1.00;;;13.80;98.00;;;;;;5052111;28;20453;-68
2021/12/31 01:22:44;;;;;;;2.33;1.10;;;13.90;98.00;;;;;;5052014;28;20469;-68
2021/12/31 01:25:12;;;;;;;1.20;1.00;;;13.80;98.00;;;;;;5052104;28;21080;-68
2021/12/31 01:27:40;;;;;;;1.87;1.30;;;13.70;98.00;;;;;;5052139;28;20454;-68
2021/12/31 01:30:09;;;;;;;1.30;1.10;;;13.70;98.00;;;;;;5051822;28;20460;-68
2021/12/31 01:32:37;;;;;;;1.20;1.10;;;13.70;98.00;;;;;;5052065;28;20541;-68
2021/12/31 01:35:04;;;;;;;1.47;1.10;;;13.70;98.00;;;;;;5051786;28;20757;-68
2021/12/31 01:37:33;;;;;;;1.20;1.00;;;13.70;98.00;;;;;;5051857;28;20454;-68
2021/12/31 01:40:00;;;;;;;1.30;1.20;;;13.70;98.00;;;;;;5051603;28;20873;-68
2021/12/31 01:42:31;;;;;;;1.20;1.00;;;13.80;98.00;;;;;;5051903;28;20887;-68
2021/12/31 01:45:04;;;;;;;1.20;1.00;;;13.70;98.00;;;;;;5051687;28;20521;-68
2021/12/31 01:47:46;;;;;;;1.20;1.00;;;13.70;98.00;;;;;;5051670;28;20451;-68
2021/12/31 01:50:15;;;;;;;1.37;1.30;;;13.70;98.00;;;;;;5051760;28;20537;-68
2021/12/31 01:52:43;;;;;;;1.20;1.20;;;13.70;98.00;;;;;;5051708;28;20452;-68
2021/12/31 01:55:11;;;;;;;1.20;1.10;;;13.80;98.00;;;;;;5051773;28;20457;-68
2021/12/31 01:57:40;;;;;;;1.30;1.20;;;13.70;98.00;;;;;;5050775;28;20551;-68
2021/12/31 02:00:12;;;;;;;1.30;1.10;;;13.70;98.00;;;;;;5051700;28;20485;-68
2021/12/31 02:02:42;;;;;;;1.20;1.10;;;13.70;98.00;;;;;;5051858;28;20551;-68
2021/12/31 02:05:10;;;;;;;1.20;1.03;;;13.70;98.00;;;;;;5051331;28;20530;-68
2021/12/31 02:07:38;;;;;;;2.57;1.40;;;13.60;98.00;;;;;;5051645;28;20532;-68
2021/12/31 02:10:08;;;;;;;1.40;1.10;;;13.60;98.00;;;;;;5054233;28;20550;-68
2021/12/31 02:12:36;;;;;;;1.20;1.00;;;13.60;98.00;;;;;;5058559;28;20868;-68
2021/12/31 02:15:04;;;;;;;1.20;1.00;;;13.60;98.00;;;;;;5058504;28;20496;-68
2021/12/31 02:17:31;;;;;;;1.20;1.10;;;13.50;98.00;;;;;;5058062;28;20516;-68
2021/12/31 02:20:03;;;;;;;1.23;1.03;;;13.50;98.00;;;;;;5058370;28;20495;-68
2021/12/31 02:22:38;;;;;;;1.20;1.00;;;13.50;98.00;;;;;;5058426;28;20450;-68
2021/12/31 02:25:06;;;;;;;1.20;1.00;;;13.50;98.00;;;;;;5058179;28;20485;-68
2021/12/31 02:27:38;;;;;;;1.20;1.00;;;13.40;98.00;;;;;;5058461;28;20923;-68
2021/12/31 02:30:07;;;;;;;1.20;1.00;;;13.40;98.00;;;;;;5058068;28;20460;-68
2021/12/31 02:32:38;;;;;;;1.40;1.03;;;13.30;98.00;;;;;;5058397;28;20968;-68
2021/12/31 02:35:08;;;;;;;1.20;1.00;;;13.30;98.00;;;;;;5058002;28;20454;-68
2021/12/31 02:37:35;;;;;;;1.87;1.20;;;13.20;98.00;;;;;;5057852;28;20532;-68
2021/12/31 02:40:04;;;;;;;1.20;1.10;;;13.20;98.00;;;;;;5057761;28;20501;-68
2021/12/31 02:42:31;;;;;;;1.73;1.10;;;13.20;98.00;;;;;;5058003;28;20585;-68
2021/12/31 02:44:59;;;;;;;1.20;1.10;;;13.10;98.00;;;;;;5057762;28;20916;-68
2021/12/31 02:47:25;;;;;;;1.20;1.10;;;13.10;98.00;;;;;;5056661;28;20551;-68
2021/12/31 02:49:54;;;;;;;1.20;1.07;;;13.00;98.00;;;;;;5058211;28;20580;-68
2021/12/31 02:52:22;;;;;;;1.20;1.00;;;12.90;98.00;;;;;;5057804;28;20462;-68
2021/12/31 02:54:50;;;;;;;1.20;1.10;;;12.90;98.00;;;;;;5057690;28;20485;-68
2021/12/31 02:57:20;;;;;;;1.20;1.10;;;12.80;98.00;;;;;;5057910;28;20842;-68
2021/12/31 02:59:47;;;;;;;1.20;1.00;;;12.70;98.00;;;;;;5057803;28;20514;-68
2021/12/31 03:02:19;;;;;;;1.20;0.93;;;12.80;98.00;;;;;;5056295;28;20831;-68
2021/12/31 03:04:58;;;;;;;1.20;1.10;;;12.80;98.00;;;;;;5056618;28;20615;-68
2021/12/31 03:07:27;;;;;;;1.40;1.20;;;12.60;98.00;;;;;;5057620;28;20498;-68
2021/12/31 03:09:55;;;;;;;3.77;1.20;;;12.40;98.00;;;;;;5057641;28;20861;-68
2021/12/31 03:12:23;;;;;;;1.30;1.10;;;12.40;98.00;;;;;;5057675;28;20500;-68
2021/12/31 03:14:50;;;;;;;1.20;1.07;;;12.20;98.00;;;;;;5057571;28;21169;-68
2021/12/31 03:17:20;;;;;;;1.20;1.20;;;12.00;98.00;;;;;;5057764;28;20551;-68
2021/12/31 03:19:47;;;;;;;1.20;1.00;;;11.90;98.00;;;;;;5057759;28;20491;-68
2021/12/31 03:22:16;;;;;;;1.20;0.97;;;11.80;98.00;;;;;;5054193;28;20971;-68
2021/12/31 03:24:45;;;;;;;1.20;1.00;;;11.80;98.00;;;;;;5054559;28;22419;-68
2021/12/31 03:27:17;;;;;;;1.20;1.10;;;11.70;98.00;;;;;;5054534;28;20548;-68
2021/12/31 03:29:44;;;;;;;1.20;1.10;;;11.50;98.00;;;;;;5054544;28;20499;-68
2021/12/31 03:32:12;;;;;;;1.20;1.00;;;11.40;98.00;;;;;;5053318;28;20523;-68
2021/12/31 03:34:39;;;;;;;1.40;1.13;;;11.30;98.00;;;;;;5053006;28;20848;-68
2021/12/31 03:37:06;;;;;;;1.23;1.03;;;11.20;98.00;;;;;;5054265;28;20494;-68
2021/12/31 03:39:33;;;;;;;1.20;1.10;;;11.20;98.00;;;;;;5053800;28;20865;-68
2021/12/31 03:42:02;;;;;;;1.20;0.90;;;11.20;98.00;;;;;;5054278;28;20456;-68
2021/12/31 03:44:29;;;;;;;1.20;1.00;;;11.10;98.00;;;;;;5054096;28;20459;-68
2021/12/31 03:46:56;;;;;;;1.20;1.00;;;11.00;98.00;;;;;;5054192;28;20866;-68
2021/12/31 03:49:23;;;;;;;1.50;1.20;;;11.10;98.00;;;;;;5053989;28;20546;-68
2021/12/31 03:51:50;;;;;;;1.20;0.97;;;11.10;98.00;;;;;;5054252;28;20499;-68
2021/12/31 03:54:17;;;;;;;1.20;1.00;;;11.10;98.00;;;;;;5052783;28;20543;-68
2021/12/31 03:56:47;;;;;;;1.40;1.10;;;11.00;98.00;;;;;;5053788;28;20501;-68
2021/12/31 03:59:18;;;;;;;1.30;1.13;;;11.00;98.00;;;;;;5053893;28;20504;-68
2021/12/31 04:01:45;;;;;;;3.23;1.23;;;10.90;98.00;;;;;;5053538;28;20485;-68
2021/12/31 04:04:13;;;;;;;1.20;1.00;;;10.90;98.00;;;;;;5053731;28;20479;-68
2021/12/31 04:06:41;;;;;;;1.20;1.00;;;10.90;98.00;;;;;;5053491;28;20540;-68
2021/12/31 04:09:08;;;;;;;1.40;1.30;;;10.80;98.00;;;;;;5053363;28;20512;-68
2021/12/31 04:11:35;;;;;;;1.30;1.10;;;10.70;98.00;;;;;;5053602;28;20629;-68
2021/12/31 04:14:03;;;;;;;1.20;1.00;;;10.70;98.00;;;;;;5053371;28;20483;-68
2021/12/31 04:16:32;;;;;;;1.20;0.90;;;10.70;98.00;;;;;;5053463;28;21012;-68
2021/12/31 04:18:59;;;;;;;1.20;1.00;;;10.70;98.00;;;;;;5053268;28;20468;-68
2021/12/31 04:21:27;;;;;;;1.20;1.00;;;10.60;98.00;;;;;;5053255;28;20456;-68
2021/12/31 04:24:05;;;;;;;1.50;1.10;;;10.50;98.00;;;;;;5053175;28;20450;-68
2021/12/31 04:26:33;;;;;;;1.20;1.00;;;10.50;98.00;;;;;;5053032;28;20486;-68
2021/12/31 04:29:00;;;;;;;1.20;1.10;;;10.40;98.00;;;;;;5053237;28;20450;-68
2021/12/31 04:31:28;;;;;;;1.33;1.00;;;10.40;98.00;;;;;;5053223;28;20458;-68
2021/12/31 04:33:58;;;;;;;1.20;1.00;;;10.30;98.00;;;;;;5052854;28;20490;-68
2021/12/31 04:36:26;;;;;;;1.20;1.10;;;10.30;98.00;;;;;;5053012;28;20779;-68
2021/12/31 04:38:53;;;;;;;1.30;1.10;;;10.20;98.00;;;;;;5052738;28;20544;-68
2021/12/31 04:41:20;;;;;;;1.20;1.00;;;10.20;98.00;;;;;;5053096;28;20475;-67
2021/12/31 04:43:49;;;;;;;1.70;1.10;;;10.20;98.00;;;;;;5052982;28;20498;-68
2021/12/31 04:46:16;;;;;;;8.83;3.53;;;10.20;98.00;;;;;;5052467;28;20488;-68
2021/12/31 04:48:44;;;;;;;1.20;1.00;;;10.20;98.00;;;;;;5052081;28;20848;-68
2021/12/31 04:51:13;;;;;;;1.20;1.00;;;10.10;98.00;;;;;;5050819;28;20494;-68
2021/12/31 04:53:42;;;;;;;1.20;1.10;;;10.10;98.00;;;;;;5052416;28;20496;-68
2021/12/31 04:56:09;;;;;;;1.20;1.00;;;10.00;98.00;;;;;;5052885;28;20453;-68
2021/12/31 04:58:36;;;;;;;1.47;1.00;;;10.00;98.00;;;;;;5052725;28;21212;-68
2021/12/31 05:01:03;;;;;;;1.20;1.00;;;10.00;98.00;;;;;;5052811;28;20883;-68
2021/12/31 05:03:30;;;;;;;1.20;0.93;;;10.00;98.00;;;;;;5052314;28;20493;-68
2021/12/31 05:05:57;;;;;;;1.20;1.00;;;10.10;98.00;;;;;;5052650;28;20481;-68
2021/12/31 05:08:26;;;;;;;1.20;1.00;;;10.10;98.00;;;;;;5052678;28;20502;-68
2021/12/31 05:10:53;;;;;;;1.20;1.00;;;9.90;98.00;;;;;;5052508;28;20488;-68
2021/12/31 05:13:20;;;;;;;1.20;1.10;;;9.90;98.00;;;;;;5052394;28;20458;-68
2021/12/31 05:15:51;;;;;;;1.20;1.00;;;9.60;98.00;;;;;;5052743;28;20959;-68
2021/12/31 05:18:18;;;;;;;1.20;1.00;;;9.50;98.00;;;;;;5052499;28;20457;-68
2021/12/31 05:20:46;;;;;;;1.50;1.10;;;9.50;98.00;;;;;;5052542;28;20460;-68
2021/12/31 05:23:13;;;;;;;1.30;1.03;;;9.40;98.00;;;;;;5052040;28;20488;-68
2021/12/31 05:25:42;;;;;;;1.60;1.10;;;9.40;98.00;;;;;;5052024;28;20523;-68
2021/12/31 05:28:09;;;;;;;1.20;1.10;;;9.30;98.00;;;;;;5052261;28;21264;-68
2021/12/31 05:30:36;;;;;;;3.00;1.40;;;9.30;98.00;;;;;;5051974;28;20546;-68
2021/12/31 05:33:03;;;;;;;1.20;0.90;;;9.20;98.00;;;;;;5051491;28;20558;-68
2021/12/31 05:35:30;;;;;;;2.07;1.33;;;9.10;98.00;;;;;;5051445;28;20492;-68
2021/12/31 05:37:57;;;;;;;1.20;1.00;;;9.10;98.00;;;;;;5051875;28;20496;-68
2021/12/31 05:40:25;;;;;;;2.43;1.10;;;9.10;98.00;;;;;;5051780;28;20468;-68
2021/12/31 05:42:53;;;;;;;1.20;1.10;;;9.00;98.00;;;;;;5052001;28;20542;-68
2021/12/31 05:45:20;;;;;;;1.20;1.00;;;8.90;98.00;;;;;;5050802;28;20452;-68
2021/12/31 05:47:49;;;;;;;1.20;1.00;;;9.10;98.00;;;;;;5051617;28;20506;-68
2021/12/31 05:50:28;;;;;;;1.20;1.00;;;9.00;98.00;;;;;;5051832;28;20457;-68
2021/12/31 05:52:59;;;;;;;1.20;0.90;;;9.00;98.00;;;;;;5051890;28;20448;-68
2021/12/31 05:55:27;;;;;;;1.20;1.00;;;8.90;98.00;;;;;;5051421;28;20534;-68
2021/12/31 05:57:56;;;;;;;1.20;1.00;;;8.80;98.00;;;;;;5050769;28;20461;-68
2021/12/31 06:00:24;;;;;;;1.20;1.00;;;8.80;98.00;;;;;;5051651;28;20460;-68
2021/12/31 06:02:51;;;;;;;1.20;1.00;;;8.80;98.00;;;;;;5051659;28;20489;-68
2021/12/31 06:05:19;;;;;;;2.37;1.00;;;8.80;98.00;;;;;;5051588;28;20547;-68
2021/12/31 06:07:46;;;;;;;10.17;1.77;;;8.70;98.00;;;;;;5051461;28;20547;-68
2021/12/31 06:10:13;;;;;;;1.20;1.00;;;8.70;98.00;;;;;;5051718;28;20544;-68
2021/12/31 06:12:42;;;;;;;1.30;1.13;;;8.70;98.00;;;;;;5050327;28;20939;-68
2021/12/31 06:15:14;;;;;;;1.20;0.90;;;8.50;98.00;;;;;;5051607;28;20496;-68
2021/12/31 06:17:41;;;;;;;1.20;1.00;;;8.40;98.00;;;;;;5051543;28;20452;-68
2021/12/31 06:20:10;;;;;;;1.50;1.10;;;8.30;98.00;;;;;;5051409;28;20541;-68
2021/12/31 06:22:37;;;;;;;1.20;1.00;;;8.30;98.00;;;;;;5051467;28;20494;-68
2021/12/31 06:25:06;;;;;;;1.20;1.00;;;8.40;98.00;;;;;;5051585;28;20816;-68
2021/12/31 06:27:33;;;;;;;1.20;1.00;;;8.40;98.00;;;;;;5051413;28;20513;-68
2021/12/31 06:30:00;;;;;;;1.20;1.03;;;8.50;98.00;;;;;;5051461;28;20488;-68
2021/12/31 06:32:28;;;;;;;1.20;1.13;;;8.50;98.00;;;;;;5051400;28;20458;-68
2021/12/31 06:34:55;;;;;;;1.20;1.10;;;8.30;98.00;;;;;;5051641;28;20530;-68
2021/12/31 06:37:22;;;;;;;1.20;1.00;;;8.40;98.00;;;;;;5051601;28;20510;-68
2021/12/31 06:39:49;;;;;;;1.30;1.10;;;8.40;98.00;;;;;;5051298;28;20500;-68
2021/12/31 06:42:18;;;;;;;1.20;1.00;;;8.40;98.00;;;;;;5051663;28;20455;-68
2021/12/31 06:44:45;;;;;;;1.20;1.00;;;8.40;98.00;;;;;;5050375;28;20810;-68
2021/12/31 06:47:13;;;;;;;1.20;0.90;;;8.30;98.00;;;;;;5051656;28;21161;-68
2021/12/31 06:49:43;;;;;;;1.20;1.00;;;8.30;98.00;;;;;;5051392;28;20504;-68
2021/12/31 06:52:11;;;;;;;1.20;1.00;;;8.30;98.00;;;;;;5051348;28;20460;-68
2021/12/31 06:54:38;;;;;;;1.20;0.93;;;8.30;98.00;;;;;;5050729;28;20570;-68
2021/12/31 06:57:05;;;;;;;1.20;1.00;;;8.40;98.00;;;;;;5053864;28;20493;-68
2021/12/31 06:59:32;;;;;;;1.20;1.00;;;8.20;98.00;;;;;;5054684;28;20563;-68
2021/12/31 07:01:59;;;;;;;1.20;1.00;;;8.20;98.00;;;;;;5053468;28;20473;-68
2021/12/31 07:04:27;;;;;;;4.20;1.10;;;7.90;98.00;;;;;;5054672;28;20494;-68
2021/12/31 07:06:56;;;;;;;1.20;0.90;;;7.90;98.00;;;;;;5053496;28;20499;-69
2021/12/31 07:09:24;;;;;;;1.20;1.00;;;7.90;98.00;;;;;;5054547;28;20535;-67
2021/12/31 07:11:51;;;;;;;1.20;1.00;;;7.90;98.00;;;;;;5053425;28;20538;-67
2021/12/31 07:14:21;;;;;;;1.20;1.00;;;8.00;98.00;;;;;;5054728;28;20448;-67
2021/12/31 07:16:49;;;;;;;1.20;1.00;;;7.90;98.00;;;;;;5054632;28;20471;-67
2021/12/31 07:19:16;;;;;;;1.83;1.20;;;7.90;98.00;;;;;;5054667;28;20998;-67
2021/12/31 07:21:42;;;;;;;1.20;0.90;;;7.80;98.00;;;;;;5054592;28;20462;-67
2021/12/31 07:24:11;;;;;;;2.50;1.53;;;7.80;98.00;;;;;;5054611;28;20909;-67
2021/12/31 07:26:38;;;;;;;1.20;0.90;;;7.80;98.00;;;;;;5054231;28;20516;-67
2021/12/31 07:29:05;;;;;;;1.20;1.10;;;7.80;98.00;;;;;;5054087;28;20467;-67
2021/12/31 07:31:32;;;;;;;1.30;1.10;;;7.90;98.00;;;;;;5053985;28;20538;-67
2021/12/31 07:33:59;;;;;;;2.17;1.10;;;7.90;98.00;;;;;;5054200;28;20508;-67
2021/12/31 07:36:27;;;;;;;1.30;1.10;;;7.80;98.00;;;;;;5054214;28;20533;-68
2021/12/31 07:39:00;;;;;;;1.73;1.30;;;7.80;98.00;;;;;;5054108;28;20476;-68
2021/12/31 07:41:29;;;;;;;1.20;1.00;;;7.80;98.00;;;;;;5053682;28;20467;-68
2021/12/31 07:43:56;;;;;;;1.20;1.00;;;7.90;98.00;;;;;;5053196;28;20555;-67
2021/12/31 07:46:35;;;;;;;1.67;1.40;;;7.90;98.00;;;;;;5054122;28;20552;-68
2021/12/31 07:49:03;;;;;;;1.20;0.90;;;7.90;98.00;;;;;;5054191;28;20789;-67
2021/12/31 07:51:30;;;;;;;1.20;1.00;;;8.00;98.00;;;;;;5054138;28;20492;-67
2021/12/31 07:53:57;;;;;;;1.20;1.00;;;8.20;98.00;;;;;;5054109;28;20879;-67
2021/12/31 07:56:24;;;;;;;1.20;1.00;;;8.30;98.00;;;;;;5053975;28;20493;-68
2021/12/31 07:58:52;;;;;;;1.40;1.03;;;8.10;98.00;;;;;;5053960;28;20519;-68
2021/12/31 08:01:19;;;;;;;1.30;1.10;;;8.00;98.00;;;;;;5053793;28;20456;-67
2021/12/31 08:03:46;;;;;;;1.20;1.10;;;8.00;98.00;;;;;;5053622;28;20496;-67
2021/12/31 08:06:13;;;;;;;1.93;1.30;;;8.00;98.00;;;;;;5053881;28;20521;-68
2021/12/31 08:08:40;;;;;;;1.40;1.13;;;7.90;98.00;;;;;;5053224;28;20537;-68
2021/12/31 08:11:07;;;;;;;1.20;1.07;;;7.70;98.00;;;;;;5053751;28;20503;-67
2021/12/31 08:13:35;;;;;;;1.20;1.10;;;7.70;98.00;;;;;;5053321;28;20455;-68
2021/12/31 08:16:03;;;;;;;1.50;1.10;;;7.80;98.00;;;;;;5052231;28;20480;-67
2021/12/31 08:18:30;;;;;;;1.20;1.00;;;7.90;98.00;;;;;;5053387;28;20458;-67
2021/12/31 08:20:57;;;;;;;1.63;1.10;;;7.70;98.00;;;;;;5053074;28;20497;-67
2021/12/31 08:23:24;;;;;;;1.20;1.00;;;7.60;98.00;;;;;;5053335;28;20986;-66
2021/12/31 08:25:52;;;;;;;1.20;1.00;;;7.60;98.00;;;;;;5042923;28;20456;-71
2021/12/31 08:28:20;;;;;;;1.30;1.20;;;7.60;98.00;;;;;;5036633;28;20492;-70
2021/12/31 08:30:47;;;;;;;5.83;1.57;;;7.50;98.00;;;;;;5043961;28;20464;-69
2021/12/31 08:33:20;;;;;;;1.43;1.30;;;7.50;98.00;;;;;;5048870;28;20542;-69
2021/12/31 08:35:47;;;;;;;1.50;1.20;;;7.50;98.00;;;;;;5036418;28;20936;-68
2021/12/31 08:38:14;;;;;;;1.40;1.40;;;7.50;98.00;;;;;;5044287;28;20573;-68
2021/12/31 08:40:41;;;;;;;1.20;0.90;;;7.40;98.00;;;;;;5048493;28;20560;-70
2021/12/31 08:43:08;;;;;;;1.20;0.90;;;7.50;98.00;;;;;;5052984;28;20516;-70
2021/12/31 08:45:37;;;;;;;1.20;1.00;;;7.60;98.00;;;;;;5052842;28;20900;-71
2021/12/31 08:48:05;;;;;;;1.20;0.90;;;7.80;98.00;;;;;;5052650;28;20571;-70
2021/12/31 08:50:35;;;;;;;3.77;1.90;;;7.90;98.00;;;;;;5052721;28;20536;-70
2021/12/31 08:53:03;;;;;;;1.67;1.10;;;8.00;98.00;;;;;;5052790;28;20505;-70
2021/12/31 08:55:43;;;;;;;1.20;0.97;;;8.10;98.00;;;;;;5052724;28;21206;-70
2021/12/31 08:58:11;;;;;;;1.20;1.00;;;8.10;98.00;;;;;;5052934;28;20826;-69
2021/12/31 09:00:38;;;;;;;2.03;1.20;;;8.10;98.00;;;;;;5052544;28;20496;-69
2021/12/31 09:03:05;;;;;;;1.47;1.10;;;8.10;98.00;;;;;;5052817;28;20485;-69
2021/12/31 09:05:34;;;;;;;3.50;1.33;;;8.10;98.00;;;;;;5052511;28;20494;-69
2021/12/31 09:08:01;;;;;;;1.20;1.10;;;8.10;98.00;;;;;;5052349;28;20574;-69
2021/12/31 09:10:28;;;;;;;1.20;1.10;;;8.10;98.00;;;;;;5052309;28;20511;-69
2021/12/31 09:12:57;;;;;;;1.20;1.00;;;8.10;98.00;;;;;;5052209;28;20502;-69
2021/12/31 09:15:24;;;;;;;1.20;1.00;;;8.20;98.00;;;;;;5050979;28;20461;-69
2021/12/31 09:17:51;;;;;;;2.03;1.20;;;8.30;98.00;;;;;;5051409;28;20492;-69
2021/12/31 09:20:18;;;;;;;1.20;1.00;;;8.30;98.00;;;;;;5051569;28;20464;-69
2021/12/31 09:22:46;;;;;;;1.20;1.20;;;8.30;98.00;;;;;;5052274;28;20491;-68
2021/12/31 09:25:14;;;;;;;1.67;1.20;;;8.40;98.00;;;;;;5050376;28;20560;-69
2021/12/31 09:27:41;;;;;;;1.40;1.30;;;8.40;98.00;;;;;;5052241;28;20521;-69
2021/12/31 09:30:09;;;;;;;1.20;1.10;;;8.40;98.00;;;;;;5052138;28;20487;-69
2021/12/31 09:32:36;;;;;;;1.40;1.33;;;8.50;98.00;;;;;;5052222;28;20454;-69
2021/12/31 09:35:04;;;;;;;1.87;1.67;;;8.50;98.00;;;;;;5052536;28;20464;-68
2021/12/31 09:37:31;;;;;;;1.30;1.20;;;8.80;98.00;;;;;;5052193;28;20481;-69
2021/12/31 09:40:00;;;;;;;1.30;1.07;;;9.00;98.00;;;;;;5052166;28;20507;-69
2021/12/31 09:42:27;;;;;;;1.70;1.60;;;9.00;98.00;;;;;;5051999;28;20464;-69
2021/12/31 09:44:53;;;;;;;1.30;1.30;;;8.90;98.00;;;;;;5051721;28;20469;-69
2021/12/31 09:47:20;;;;;;;1.47;1.10;;;8.90;98.00;;;;;;5051921;28;20524;-69
2021/12/31 09:49:49;;;;;;;1.50;1.20;;;8.90;98.00;;;;;;5051988;28;20971;-69
2021/12/31 09:52:18;;;;;;;1.40;1.10;;;9.00;98.00;;;;;;5051771;28;20552;-69
2021/12/31 09:54:46;;;;;;;1.40;1.07;;;9.10;98.00;;;;;;5051603;28;20451;-69
2021/12/31 09:57:17;;;;;;;1.20;0.90;;;9.20;98.00;;;;;;5049982;28;20461;-69
2021/12/31 09:59:46;;;;;;;1.20;1.17;;;9.30;98.00;;;;;;5051417;28;20486;-69
2021/12/31 10:02:15;;;;;;;1.30;1.10;;;9.40;98.00;;;;;;5050853;28;21155;-68
2021/12/31 10:04:52;;;;;;;1.40;1.20;;;9.40;98.00;;;;;;5051594;28;20454;-69
2021/12/31 10:07:23;;;;;;;1.17;1.00;;;9.50;98.00;;;;;;5051582;28;21132;-71
2021/12/31 10:10:09;;;;;;;2.57;1.40;;;9.60;98.00;;;;;;5051537;28;20506;-69
2021/12/31 10:12:48;;;;;;;1.20;1.10;;;9.50;98.00;;;;;;5051624;28;20921;-69
2021/12/31 10:15:19;;;;;;;1.40;1.20;;;9.70;98.00;;;;;;5051358;28;21009;-69
2021/12/31 10:17:47;;;;;;;1.20;1.10;;;9.90;98.00;;;;;;5051362;28;20515;-68
2021/12/31 10:20:16;;;;;;;1.80;1.30;;;9.90;98.00;;;;;;5051565;28;20492;-68
2021/12/31 10:22:43;;;;;;;1.10;0.90;;;9.90;98.00;;;;;;5051454;28;20506;-66
2021/12/31 10:25:22;;;;;;;2.17;1.20;;;9.90;98.00;;;;;;5050804;28;20493;-71
2021/12/31 10:27:53;;;;;;;1.10;1.00;;;10.00;98.00;;;;;;5050523;28;20481;-70
2021/12/31 10:30:26;;;;;;;1.70;1.20;;;10.10;98.00;;;;;;5050677;28;20510;-68
2021/12/31 10:32:54;;;;;;;1.10;1.00;;;10.10;98.00;;;;;;5055362;28;20462;-69
2021/12/31 10:35:22;;;;;;;1.20;1.00;;;10.20;98.00;;;;;;5055323;28;20548;-69
2021/12/31 10:37:51;;;;;;;1.13;0.93;;;10.40;98.00;;;;;;5055380;28;20536;-68
2021/12/31 10:40:29;;;;;;;1.13;1.10;;;10.60;98.00;;;;;;5055154;28;20505;-68
2021/12/31 10:43:15;;;;;;;1.63;1.30;;;10.60;98.00;;;;;;5055337;28;20464;-68
2021/12/31 10:45:59;;;;;;;2.43;1.30;;;10.60;98.00;;;;;;5055239;28;20462;-68
2021/12/31 10:48:39;;;;;;;2.43;1.40;;;10.60;98.00;;;;;;5055517;28;20592;-69
2021/12/31 10:51:07;;;;;;;1.10;0.97;;;10.60;98.00;;;;;;5053444;28;20503;-68
2021/12/31 10:53:37;;;;;;;1.20;1.10;;;10.70;98.00;;;;;;5054612;28;20926;-69
2021/12/31 10:56:08;;;;;;;1.30;1.07;;;10.70;98.00;;;;;;5032049;28;20482;-68
2021/12/31 10:58:40;;;;;;;1.20;1.00;;;10.90;98.00;;;;;;5034479;28;20555;-69
2021/12/31 11:01:12;;;;;;;1.80;1.20;;;11.00;98.00;;;;;;5034461;28;20497;-69
2021/12/31 11:03:40;;;;;;;1.17;1.03;;;11.00;98.00;;;;;;5024861;28;20465;-69
2021/12/31 11:06:09;;;;;;;1.40;1.17;;;11.10;98.00;;;;;;5014473;28;20538;-67
2021/12/31 11:08:37;;;;;;;2.03;1.40;;;11.30;98.00;;;;;;5014870;28;20925;-67
2021/12/31 11:11:05;;;;;;;1.40;1.10;;;11.40;98.00;;;;;;5014556;28;20507;-68
2021/12/31 11:13:32;;;;;;;1.20;1.07;;;11.50;98.00;;;;;;5014508;28;20461;-67
2021/12/31 11:16:01;;;;;;;1.20;1.00;;;11.70;98.00;;;;;;5014644;28;20688;-67
2021/12/31 11:18:28;;;;;;;1.30;1.23;;;11.90;98.00;;;;;;5014815;28;20449;-67
2021/12/31 11:20:58;;;;;;;1.20;1.10;;;12.10;98.00;;;;;;5014993;28;20904;-67
2021/12/31 11:23:26;;;;;;;1.20;1.00;;;12.30;98.00;;;;;;5014795;28;20461;-68
2021/12/31 11:25:56;;;;;;;1.60;1.10;;;12.50;98.00;;;;;;5014442;28;20461;-67
2021/12/31 11:28:29;;;;;;;1.20;1.10;;;12.80;98.00;;;;;;5014625;28;20522;-67
2021/12/31 11:30:57;;;;;;;1.20;1.00;;;12.90;98.00;;;;;;5014411;28;20925;-68
2021/12/31 11:33:30;;;;;;;1.30;1.20;;;13.00;98.00;;;;;;5014598;28;20875;-68
2021/12/31 11:36:05;;;;;;;1.40;1.30;;;13.20;98.00;;;;;;5014528;28;20946;-68
2021/12/31 11:38:47;;;;;;;1.20;1.10;;;13.50;98.00;;;;;;5014419;28;20528;-68
2021/12/31 11:41:15;;;;;;;1.20;1.00;;;13.60;98.00;;;;;;5014433;28;20547;-68
2021/12/31 11:43:43;;;;;;;1.20;1.00;;;13.70;98.00;;;;;;5013282;28;20464;-68
2021/12/31 11:46:35;;;;;;;2.40;1.53;;;13.80;98.00;;;;;;5014250;28;20462;-68
2021/12/31 11:49:09;;;;;;;1.20;1.00;;;13.80;98.00;;;;;;5008793;28;20522;-68
2021/12/31 11:51:39;;;;;;;1.20;1.10;;;13.70;98.00;;;;;;5013979;28;20561;-67
2021/12/31 11:54:19;;;;;;;1.70;1.20;;;13.90;98.00;;;;;;5014267;28;20455;-67
2021/12/31 11:57:07;;;;;;;1.20;1.00;;;14.00;98.00;;;;;;5014287;28;20490;-67
2021/12/31 11:59:36;;;;;;;1.20;1.00;;;14.20;98.00;;;;;;5014275;28;20556;-68
2021/12/31 12:02:15;;;;;;;1.20;1.10;;;14.40;98.00;;;;;;5014148;28;20530;-68
2021/12/31 12:04:47;;;;;;;1.20;1.10;;;14.50;98.00;;;;;;5013813;28;20459;-68
2021/12/31 12:07:35;;;;;;;1.20;1.10;;;14.40;98.00;;;;;;5012922;28;20501;-68
2021/12/31 12:10:36;;;;;;;1.20;1.00;;;14.40;98.00;;;;;;5013938;28;20538;-68
2021/12/31 12:13:29;;;;;;;1.40;1.30;;;14.40;98.00;;;;;;5014500;28;20486;-68
2021/12/31 12:15:57;;;;;;;2.07;1.57;;;14.40;98.00;;;;;;5013897;28;20465;-68
2021/12/31 12:18:55;;;;;;;1.53;1.30;;;14.50;98.00;;;;;;5013865;28;20456;-68
2021/12/31 12:21:38;;;;;;;1.30;1.20;;;14.70;98.00;;;;;;5014076;28;20884;-67
2021/12/31 12:24:07;;;;;;;1.20;1.00;;;14.80;98.00;;;;;;5013946;28;20510;-68
2021/12/31 12:26:34;;;;;;;2.13;1.20;;;15.00;98.00;;;;;;5013695;28;20450;-68
2021/12/31 12:29:01;;;;;;;1.60;1.37;;;15.00;98.00;;;;;;5013480;28;20531;-68
2021/12/31 12:31:34;;;;;;;1.30;1.10;;;15.00;98.00;;;;;;5013430;28;20822;-68
2021/12/31 12:34:01;;;;;;;1.33;1.20;;;15.20;98.00;;;;;;5013387;28;20512;-68
2021/12/31 12:36:28;;;;;;;1.20;1.03;;;15.60;98.00;;;;;;5013306;28;20549;-68
2021/12/31 12:39:07;;;;;;;1.20;1.00;;;16.00;98.00;;;;;;5012974;28;20500;-68
2021/12/31 12:41:35;;;;;;;1.30;1.20;;;16.20;98.00;;;;;;5013238;28;20486;-68
2021/12/31 12:44:10;;;;;;;1.73;1.40;;;16.40;98.00;;;;;;5013180;28;20462;-68
2021/12/31 12:46:37;;;;;;;1.20;1.10;;;16.80;98.00;;;;;;5013132;28;20505;-68
2021/12/31 12:49:17;;;;;;;1.83;1.10;;;16.90;98.00;;;;;;5012626;28;20552;-68
2021/12/31 12:51:44;;;;;;;1.83;1.73;;;17.10;98.00;;;;;;5013222;28;20544;-68
2021/12/31 12:54:19;;;;;;;1.20;1.10;;;17.50;98.00;;;;;;5012671;28;21077;-68
2021/12/31 12:56:47;;;;;;;1.50;1.30;;;17.80;98.00;;;;;;5012966;28;20489;-68
2021/12/31 12:59:20;;;;;;;1.40;1.17;;;18.10;98.00;;;;;;5012920;28;20456;-68
2021/12/31 13:01:47;;;;;;;1.30;1.13;;;18.40;98.00;;;;;;5012911;28;20464;-68